sensor_id;sensor_type;location;lat;lon;timestamp;P1;durP1;ratioP1;P2;durP2;ratioP2
75386;SDS011;63966;47.914;22.266;2023-07-29T00:02:03;9.65;;;5.50;;
75386;SDS011;63966;47.914;22.266;2023-07-29T00:05:07;8.88;;;5.55;;
75386;SDS011;63966;47.914;22.266;2023-07-29T00:08:10;9.73;;;5.03;;
75386;SDS011;63966;47.914;22.266;2023-07-29T00:11:14;8.50;;;5.03;;
75386;SDS011;63966;47.914;22.266;2023-07-29T00:14:17;9.00;;;4.87;;
75386;SDS011;63966;47.914;22.266;2023-07-29T00:17:21;7.55;;;5.15;;
75386;SDS011;63966;47.914;22.266;2023-07-29T00:20:24;9.65;;;5.75;;
75386;SDS011;63966;47.914;22.266;2023-07-29T00:23:27;10.93;;;6.00;;
75386;SDS011;63966;47.914;22.266;2023-07-29T00:26:31;7.63;;;5.07;;
75386;SDS011;63966;47.914;22.266;2023-07-29T00:29:35;9.27;;;5.37;;
75386;SDS011;63966;47.914;22.266;2023-07-29T00:32:38;9.43;;;5.30;;
75386;SDS011;63966;47.914;22.266;2023-07-29T00:35:42;9.88;;;4.78;;
75386;SDS011;63966;47.914;22.266;2023-07-29T00:38:45;9.68;;;5.32;;
75386;SDS011;63966;47.914;22.266;2023-07-29T00:41:50;7.07;;;4.40;;
75386;SDS011;63966;47.914;22.266;2023-07-29T00:44:53;7.73;;;4.90;;
75386;SDS011;63966;47.914;22.266;2023-07-29T00:47:57;13.40;;;4.47;;
75386;SDS011;63966;47.914;22.266;2023-07-29T00:51:01;8.43;;;3.97;;
75386;SDS011;63966;47.914;22.266;2023-07-29T00:54:05;7.07;;;3.92;;
75386;SDS011;63966;47.914;22.266;2023-07-29T00:57:08;8.77;;;4.07;;
75386;SDS011;63966;47.914;22.266;2023-07-29T01:00:14;10.03;;;4.30;;
75386;SDS011;63966;47.914;22.266;2023-07-29T01:03:18;8.60;;;3.92;;
75386;SDS011;63966;47.914;22.266;2023-07-29T01:06:39;7.38;;;3.78;;
75386;SDS011;63966;47.914;22.266;2023-07-29T01:13:06;10.33;;;4.13;;
75386;SDS011;63966;47.914;22.266;2023-07-29T01:16:24;7.10;;;3.83;;
75386;SDS011;63966;47.914;22.266;2023-07-29T01:20:00;7.40;;;3.78;;
75386;SDS011;63966;47.914;22.266;2023-07-29T01:23:10;6.45;;;3.80;;
75386;SDS011;63966;47.914;22.266;2023-07-29T01:26:13;6.35;;;3.55;;
75386;SDS011;63966;47.914;22.266;2023-07-29T01:29:17;8.27;;;4.07;;
75386;SDS011;63966;47.914;22.266;2023-07-29T01:32:24;6.33;;;3.43;;
75386;SDS011;63966;47.914;22.266;2023-07-29T01:38:47;9.07;;;3.67;;
75386;SDS011;63966;47.914;22.266;2023-07-29T01:41:51;7.57;;;3.92;;
75386;SDS011;63966;47.914;22.266;2023-07-29T01:44:55;7.27;;;3.73;;
75386;SDS011;63966;47.914;22.266;2023-07-29T01:48:00;9.67;;;3.70;;
75386;SDS011;63966;47.914;22.266;2023-07-29T01:51:03;6.90;;;4.00;;
75386;SDS011;63966;47.914;22.266;2023-07-29T01:54:07;10.35;;;4.22;;
75386;SDS011;63966;47.914;22.266;2023-07-29T01:57:11;9.43;;;3.72;;
75386;SDS011;63966;47.914;22.266;2023-07-29T02:00:15;9.50;;;3.90;;
75386;SDS011;63966;47.914;22.266;2023-07-29T02:03:20;6.77;;;3.47;;
75386;SDS011;63966;47.914;22.266;2023-07-29T02:06:23;9.73;;;4.00;;
75386;SDS011;63966;47.914;22.266;2023-07-29T02:09:27;6.97;;;3.10;;
75386;SDS011;63966;47.914;22.266;2023-07-29T02:12:30;9.23;;;3.58;;
75386;SDS011;63966;47.914;22.266;2023-07-29T02:15:34;6.57;;;3.20;;
75386;SDS011;63966;47.914;22.266;2023-07-29T02:18:37;8.97;;;3.57;;
75386;SDS011;63966;47.914;22.266;2023-07-29T02:21:41;7.78;;;3.88;;
75386;SDS011;63966;47.914;22.266;2023-07-29T02:24:44;7.43;;;3.78;;
75386;SDS011;63966;47.914;22.266;2023-07-29T02:27:48;7.75;;;3.67;;
75386;SDS011;63966;47.914;22.266;2023-07-29T02:31:08;9.90;;;3.73;;
75386;SDS011;63966;47.914;22.266;2023-07-29T02:34:16;5.57;;;3.30;;
75386;SDS011;63966;47.914;22.266;2023-07-29T02:37:20;6.90;;;3.22;;
75386;SDS011;63966;47.914;22.266;2023-07-29T02:40:23;7.93;;;3.42;;
75386;SDS011;63966;47.914;22.266;2023-07-29T02:43:29;7.05;;;3.47;;
75386;SDS011;63966;47.914;22.266;2023-07-29T02:46:32;10.07;;;3.77;;
75386;SDS011;63966;47.914;22.266;2023-07-29T02:49:36;7.67;;;3.63;;
75386;SDS011;63966;47.914;22.266;2023-07-29T02:52:39;10.75;;;4.25;;
75386;SDS011;63966;47.914;22.266;2023-07-29T02:55:43;10.27;;;3.70;;
75386;SDS011;63966;47.914;22.266;2023-07-29T02:58:46;7.03;;;3.67;;
75386;SDS011;63966;47.914;22.266;2023-07-29T03:01:50;11.50;;;3.87;;
75386;SDS011;63966;47.914;22.266;2023-07-29T03:04:53;7.43;;;3.40;;
75386;SDS011;63966;47.914;22.266;2023-07-29T03:07:57;7.25;;;3.17;;
75386;SDS011;63966;47.914;22.266;2023-07-29T03:11:07;10.43;;;4.47;;
75386;SDS011;63966;47.914;22.266;2023-07-29T03:14:15;8.05;;;4.07;;
75386;SDS011;63966;47.914;22.266;2023-07-29T03:17:18;7.33;;;4.00;;
75386;SDS011;63966;47.914;22.266;2023-07-29T03:20:22;8.63;;;3.67;;
75386;SDS011;63966;47.914;22.266;2023-07-29T03:23:25;9.30;;;4.05;;
75386;SDS011;63966;47.914;22.266;2023-07-29T03:26:29;8.60;;;4.10;;
75386;SDS011;63966;47.914;22.266;2023-07-29T03:29:33;7.13;;;3.70;;
75386;SDS011;63966;47.914;22.266;2023-07-29T03:32:39;6.47;;;3.70;;
75386;SDS011;63966;47.914;22.266;2023-07-29T03:35:46;8.13;;;3.70;;
75386;SDS011;63966;47.914;22.266;2023-07-29T03:38:50;6.32;;;3.30;;
75386;SDS011;63966;47.914;22.266;2023-07-29T03:41:53;7.80;;;3.33;;
75386;SDS011;63966;47.914;22.266;2023-07-29T03:44:57;7.07;;;3.60;;
75386;SDS011;63966;47.914;22.266;2023-07-29T03:48:00;8.63;;;3.30;;
75386;SDS011;63966;47.914;22.266;2023-07-29T03:51:04;8.27;;;3.43;;
75386;SDS011;63966;47.914;22.266;2023-07-29T03:54:07;7.00;;;3.28;;
75386;SDS011;63966;47.914;22.266;2023-07-29T03:57:11;6.10;;;3.33;;
75386;SDS011;63966;47.914;22.266;2023-07-29T04:00:14;9.60;;;3.85;;
75386;SDS011;63966;47.914;22.266;2023-07-29T04:03:18;11.20;;;4.10;;
75386;SDS011;63966;47.914;22.266;2023-07-29T04:06:22;8.07;;;3.50;;
75386;SDS011;63966;47.914;22.266;2023-07-29T04:09:26;9.02;;;3.97;;
75386;SDS011;63966;47.914;22.266;2023-07-29T04:12:29;9.95;;;3.53;;
75386;SDS011;63966;47.914;22.266;2023-07-29T04:15:33;9.93;;;3.50;;
75386;SDS011;63966;47.914;22.266;2023-07-29T04:18:36;6.57;;;3.40;;
75386;SDS011;63966;47.914;22.266;2023-07-29T04:21:40;6.93;;;3.10;;
75386;SDS011;63966;47.914;22.266;2023-07-29T04:24:43;7.25;;;3.75;;
75386;SDS011;63966;47.914;22.266;2023-07-29T04:27:47;7.38;;;3.70;;
75386;SDS011;63966;47.914;22.266;2023-07-29T04:30:50;8.45;;;2.80;;
75386;SDS011;63966;47.914;22.266;2023-07-29T04:33:53;7.93;;;2.90;;
75386;SDS011;63966;47.914;22.266;2023-07-29T04:36:57;10.27;;;3.07;;
75386;SDS011;63966;47.914;22.266;2023-07-29T04:40:01;7.25;;;2.80;;
75386;SDS011;63966;47.914;22.266;2023-07-29T04:43:05;7.07;;;3.20;;
75386;SDS011;63966;47.914;22.266;2023-07-29T04:46:09;5.82;;;2.95;;
75386;SDS011;63966;47.914;22.266;2023-07-29T04:49:12;6.80;;;3.00;;
75386;SDS011;63966;47.914;22.266;2023-07-29T04:52:16;7.73;;;2.80;;
75386;SDS011;63966;47.914;22.266;2023-07-29T04:55:21;6.28;;;3.20;;
75386;SDS011;63966;47.914;22.266;2023-07-29T04:58:24;6.40;;;3.30;;
75386;SDS011;63966;47.914;22.266;2023-07-29T05:01:32;7.72;;;3.28;;
75386;SDS011;63966;47.914;22.266;2023-07-29T05:04:36;6.20;;;2.97;;
75386;SDS011;63966;47.914;22.266;2023-07-29T05:07:39;9.43;;;3.93;;
75386;SDS011;63966;47.914;22.266;2023-07-29T05:10:43;8.07;;;3.85;;
75386;SDS011;63966;47.914;22.266;2023-07-29T05:13:46;6.00;;;3.38;;
75386;SDS011;63966;47.914;22.266;2023-07-29T05:16:49;6.65;;;3.75;;
75386;SDS011;63966;47.914;22.266;2023-07-29T05:19:53;7.00;;;4.00;;
75386;SDS011;63966;47.914;22.266;2023-07-29T05:22:57;9.60;;;4.60;;
75386;SDS011;63966;47.914;22.266;2023-07-29T05:26:00;8.57;;;4.60;;
75386;SDS011;63966;47.914;22.266;2023-07-29T05:29:03;8.27;;;3.95;;
75386;SDS011;63966;47.914;22.266;2023-07-29T05:32:07;9.60;;;4.15;;
75386;SDS011;63966;47.914;22.266;2023-07-29T05:35:10;7.53;;;3.45;;
75386;SDS011;63966;47.914;22.266;2023-07-29T05:38:14;6.97;;;3.77;;
75386;SDS011;63966;47.914;22.266;2023-07-29T05:41:17;8.75;;;3.58;;
75386;SDS011;63966;47.914;22.266;2023-07-29T05:44:20;5.85;;;3.40;;
75386;SDS011;63966;47.914;22.266;2023-07-29T05:47:24;7.30;;;3.40;;
75386;SDS011;63966;47.914;22.266;2023-07-29T05:50:27;6.17;;;3.73;;
75386;SDS011;63966;47.914;22.266;2023-07-29T05:53:31;6.77;;;3.23;;
75386;SDS011;63966;47.914;22.266;2023-07-29T05:56:34;5.55;;;3.22;;
75386;SDS011;63966;47.914;22.266;2023-07-29T05:59:38;7.55;;;3.50;;
75386;SDS011;63966;47.914;22.266;2023-07-29T06:02:41;7.70;;;3.00;;
75386;SDS011;63966;47.914;22.266;2023-07-29T06:05:49;5.78;;;3.58;;
75386;SDS011;63966;47.914;22.266;2023-07-29T06:08:56;10.00;;;3.87;;
75386;SDS011;63966;47.914;22.266;2023-07-29T06:12:00;8.05;;;4.05;;
75386;SDS011;63966;47.914;22.266;2023-07-29T06:15:04;6.10;;;4.03;;
75386;SDS011;63966;47.914;22.266;2023-07-29T06:18:08;5.90;;;4.10;;
75386;SDS011;63966;47.914;22.266;2023-07-29T06:21:12;6.72;;;4.53;;
75386;SDS011;63966;47.914;22.266;2023-07-29T06:24:19;5.70;;;2.97;;
75386;SDS011;63966;47.914;22.266;2023-07-29T06:27:23;5.88;;;3.45;;
75386;SDS011;63966;47.914;22.266;2023-07-29T06:30:27;6.70;;;3.63;;
75386;SDS011;63966;47.914;22.266;2023-07-29T06:33:31;5.63;;;3.47;;
75386;SDS011;63966;47.914;22.266;2023-07-29T06:36:34;9.02;;;3.83;;
75386;SDS011;63966;47.914;22.266;2023-07-29T06:39:38;7.63;;;4.20;;
75386;SDS011;63966;47.914;22.266;2023-07-29T06:42:41;5.95;;;3.47;;
75386;SDS011;63966;47.914;22.266;2023-07-29T06:45:45;7.75;;;3.90;;
75386;SDS011;63966;47.914;22.266;2023-07-29T06:48:48;6.88;;;3.67;;
75386;SDS011;63966;47.914;22.266;2023-07-29T06:51:51;6.70;;;4.22;;
75386;SDS011;63966;47.914;22.266;2023-07-29T06:54:55;7.87;;;4.80;;
75386;SDS011;63966;47.914;22.266;2023-07-29T06:57:58;6.90;;;3.90;;
75386;SDS011;63966;47.914;22.266;2023-07-29T07:01:02;6.93;;;3.90;;
75386;SDS011;63966;47.914;22.266;2023-07-29T07:04:05;7.47;;;4.75;;
75386;SDS011;63966;47.914;22.266;2023-07-29T07:07:09;7.65;;;3.78;;
75386;SDS011;63966;47.914;22.266;2023-07-29T07:10:13;6.30;;;4.30;;
75386;SDS011;63966;47.914;22.266;2023-07-29T07:13:16;5.97;;;3.55;;
75386;SDS011;63966;47.914;22.266;2023-07-29T07:16:19;6.07;;;3.35;;
75386;SDS011;63966;47.914;22.266;2023-07-29T07:19:23;5.97;;;3.58;;
75386;SDS011;63966;47.914;22.266;2023-07-29T07:22:26;6.47;;;3.92;;
75386;SDS011;63966;47.914;22.266;2023-07-29T07:25:29;6.90;;;4.20;;
75386;SDS011;63966;47.914;22.266;2023-07-29T07:28:33;6.15;;;3.88;;
75386;SDS011;63966;47.914;22.266;2023-07-29T07:31:37;5.63;;;3.97;;
75386;SDS011;63966;47.914;22.266;2023-07-29T07:34:40;7.72;;;4.15;;
75386;SDS011;63966;47.914;22.266;2023-07-29T07:37:44;6.95;;;3.72;;
75386;SDS011;63966;47.914;22.266;2023-07-29T07:40:56;6.40;;;3.70;;
75386;SDS011;63966;47.914;22.266;2023-07-29T07:43:59;6.35;;;3.53;;
75386;SDS011;63966;47.914;22.266;2023-07-29T07:47:03;7.57;;;4.10;;
75386;SDS011;63966;47.914;22.266;2023-07-29T07:50:06;5.38;;;3.88;;
75386;SDS011;63966;47.914;22.266;2023-07-29T07:53:10;8.35;;;3.80;;
75386;SDS011;63966;47.914;22.266;2023-07-29T07:56:15;7.43;;;4.27;;
75386;SDS011;63966;47.914;22.266;2023-07-29T07:59:18;5.60;;;4.03;;
75386;SDS011;63966;47.914;22.266;2023-07-29T08:02:22;6.72;;;4.38;;
75386;SDS011;63966;47.914;22.266;2023-07-29T08:05:25;7.00;;;3.90;;
75386;SDS011;63966;47.914;22.266;2023-07-29T08:08:28;6.60;;;3.60;;
75386;SDS011;63966;47.914;22.266;2023-07-29T08:11:32;5.03;;;3.37;;
75386;SDS011;63966;47.914;22.266;2023-07-29T08:14:35;6.80;;;3.90;;
75386;SDS011;63966;47.914;22.266;2023-07-29T08:17:39;6.15;;;3.55;;
75386;SDS011;63966;47.914;22.266;2023-07-29T08:20:54;8.45;;;3.70;;
75386;SDS011;63966;47.914;22.266;2023-07-29T08:24:05;5.32;;;3.00;;
75386;SDS011;63966;47.914;22.266;2023-07-29T08:27:09;5.90;;;3.60;;
75386;SDS011;63966;47.914;22.266;2023-07-29T08:30:13;7.10;;;3.83;;
75386;SDS011;63966;47.914;22.266;2023-07-29T08:33:18;5.63;;;3.53;;
75386;SDS011;63966;47.914;22.266;2023-07-29T08:36:21;5.70;;;3.30;;
75386;SDS011;63966;47.914;22.266;2023-07-29T08:39:24;7.35;;;3.85;;
75386;SDS011;63966;47.914;22.266;2023-07-29T08:42:31;5.47;;;3.50;;
75386;SDS011;63966;47.914;22.266;2023-07-29T08:45:36;7.38;;;3.58;;
75386;SDS011;63966;47.914;22.266;2023-07-29T08:48:41;6.45;;;3.22;;
75386;SDS011;63966;47.914;22.266;2023-07-29T08:51:48;6.10;;;3.47;;
75386;SDS011;63966;47.914;22.266;2023-07-29T08:54:52;7.88;;;3.40;;
75386;SDS011;63966;47.914;22.266;2023-07-29T08:57:56;7.10;;;3.00;;
75386;SDS011;63966;47.914;22.266;2023-07-29T09:01:00;6.18;;;3.10;;
75386;SDS011;63966;47.914;22.266;2023-07-29T09:04:04;7.00;;;3.67;;
75386;SDS011;63966;47.914;22.266;2023-07-29T09:07:08;6.93;;;3.33;;
75386;SDS011;63966;47.914;22.266;2023-07-29T09:10:13;5.63;;;3.17;;
75386;SDS011;63966;47.914;22.266;2023-07-29T09:13:17;5.30;;;3.50;;
75386;SDS011;63966;47.914;22.266;2023-07-29T09:16:21;7.22;;;3.50;;
75386;SDS011;63966;47.914;22.266;2023-07-29T09:19:25;6.43;;;3.25;;
75386;SDS011;63966;47.914;22.266;2023-07-29T09:22:29;7.00;;;3.80;;
75386;SDS011;63966;47.914;22.266;2023-07-29T09:25:33;6.15;;;3.08;;
75386;SDS011;63966;47.914;22.266;2023-07-29T09:28:37;6.33;;;3.20;;
75386;SDS011;63966;47.914;22.266;2023-07-29T09:31:42;4.82;;;3.00;;
75386;SDS011;63966;47.914;22.266;2023-07-29T09:34:45;8.75;;;3.67;;
75386;SDS011;63966;47.914;22.266;2023-07-29T09:37:50;9.98;;;3.50;;
75386;SDS011;63966;47.914;22.266;2023-07-29T09:40:57;6.45;;;3.80;;
75386;SDS011;63966;47.914;22.266;2023-07-29T09:44:04;7.60;;;3.20;;
75386;SDS011;63966;47.914;22.266;2023-07-29T09:47:08;6.53;;;3.15;;
75386;SDS011;63966;47.914;22.266;2023-07-29T09:50:11;6.05;;;3.15;;
75386;SDS011;63966;47.914;22.266;2023-07-29T09:53:14;5.65;;;2.85;;
75386;SDS011;63966;47.914;22.266;2023-07-29T09:56:25;7.82;;;3.40;;
75386;SDS011;63966;47.914;22.266;2023-07-29T09:59:33;5.73;;;2.83;;
75386;SDS011;63966;47.914;22.266;2023-07-29T10:02:37;5.07;;;2.92;;
75386;SDS011;63966;47.914;22.266;2023-07-29T10:05:45;5.30;;;3.20;;
75386;SDS011;63966;47.914;22.266;2023-07-29T10:08:49;6.65;;;3.40;;
75386;SDS011;63966;47.914;22.266;2023-07-29T10:11:54;6.45;;;3.00;;
75386;SDS011;63966;47.914;22.266;2023-07-29T10:15:04;6.73;;;3.27;;
75386;SDS011;63966;47.914;22.266;2023-07-29T10:18:08;5.88;;;3.20;;
75386;SDS011;63966;47.914;22.266;2023-07-29T10:21:12;5.65;;;3.30;;
75386;SDS011;63966;47.914;22.266;2023-07-29T10:24:18;8.57;;;3.10;;
75386;SDS011;63966;47.914;22.266;2023-07-29T10:27:25;6.43;;;3.53;;
75386;SDS011;63966;47.914;22.266;2023-07-29T10:30:31;7.57;;;3.10;;
75386;SDS011;63966;47.914;22.266;2023-07-29T10:33:35;5.60;;;2.95;;
75386;SDS011;63966;47.914;22.266;2023-07-29T10:36:40;6.05;;;3.10;;
75386;SDS011;63966;47.914;22.266;2023-07-29T10:39:52;4.93;;;3.20;;
75386;SDS011;63966;47.914;22.266;2023-07-29T10:43:00;5.95;;;3.40;;
75386;SDS011;63966;47.914;22.266;2023-07-29T10:46:21;5.87;;;3.27;;
75386;SDS011;63966;47.914;22.266;2023-07-29T10:49:25;5.40;;;3.20;;
75386;SDS011;63966;47.914;22.266;2023-07-29T10:55:36;6.28;;;3.17;;
75386;SDS011;63966;47.914;22.266;2023-07-29T10:58:41;6.13;;;3.35;;
75386;SDS011;63966;47.914;22.266;2023-07-29T11:01:56;5.80;;;3.30;;
75386;SDS011;63966;47.914;22.266;2023-07-29T11:05:04;6.18;;;3.10;;
75386;SDS011;63966;47.914;22.266;2023-07-29T11:08:19;5.20;;;3.17;;
75386;SDS011;63966;47.914;22.266;2023-07-29T11:11:24;6.57;;;3.17;;
75386;SDS011;63966;47.914;22.266;2023-07-29T11:14:27;8.40;;;3.50;;
75386;SDS011;63966;47.914;22.266;2023-07-29T11:17:32;6.50;;;3.60;;
75386;SDS011;63966;47.914;22.266;2023-07-29T11:20:38;7.28;;;3.10;;
75386;SDS011;63966;47.914;22.266;2023-07-29T11:23:42;6.15;;;3.30;;
75386;SDS011;63966;47.914;22.266;2023-07-29T11:26:48;7.03;;;3.38;;
75386;SDS011;63966;47.914;22.266;2023-07-29T11:29:58;5.72;;;3.25;;
75386;SDS011;63966;47.914;22.266;2023-07-29T11:33:04;6.00;;;3.00;;
75386;SDS011;63966;47.914;22.266;2023-07-29T11:36:16;7.13;;;3.30;;
75386;SDS011;63966;47.914;22.266;2023-07-29T11:39:21;5.50;;;3.42;;
75386;SDS011;63966;47.914;22.266;2023-07-29T11:42:25;6.93;;;3.55;;
75386;SDS011;63966;47.914;22.266;2023-07-29T11:45:30;7.25;;;3.42;;
75386;SDS011;63966;47.914;22.266;2023-07-29T11:48:53;5.27;;;2.77;;
75386;SDS011;63966;47.914;22.266;2023-07-29T11:51:57;4.97;;;2.83;;
75386;SDS011;63966;47.914;22.266;2023-07-29T11:55:01;7.03;;;3.78;;
75386;SDS011;63966;47.914;22.266;2023-07-29T11:58:05;6.70;;;2.88;;
75386;SDS011;63966;47.914;22.266;2023-07-29T12:01:09;7.10;;;3.70;;
75386;SDS011;63966;47.914;22.266;2023-07-29T12:04:13;6.93;;;3.17;;
75386;SDS011;63966;47.914;22.266;2023-07-29T12:07:17;6.53;;;2.65;;
75386;SDS011;63966;47.914;22.266;2023-07-29T12:10:21;6.72;;;2.97;;
75386;SDS011;63966;47.914;22.266;2023-07-29T12:13:26;5.22;;;3.28;;
75386;SDS011;63966;47.914;22.266;2023-07-29T12:16:29;6.13;;;3.40;;
75386;SDS011;63966;47.914;22.266;2023-07-29T12:19:38;4.93;;;2.90;;
75386;SDS011;63966;47.914;22.266;2023-07-29T12:22:42;6.43;;;2.53;;
75386;SDS011;63966;47.914;22.266;2023-07-29T12:25:46;9.55;;;3.50;;
75386;SDS011;63966;47.914;22.266;2023-07-29T12:28:49;5.30;;;2.65;;
75386;SDS011;63966;47.914;22.266;2023-07-29T12:31:57;7.50;;;3.97;;
75386;SDS011;63966;47.914;22.266;2023-07-29T12:35:01;5.47;;;2.80;;
75386;SDS011;63966;47.914;22.266;2023-07-29T12:38:05;6.40;;;2.80;;
75386;SDS011;63966;47.914;22.266;2023-07-29T12:41:09;5.07;;;2.55;;
75386;SDS011;63966;47.914;22.266;2023-07-29T12:44:12;5.15;;;2.60;;
75386;SDS011;63966;47.914;22.266;2023-07-29T12:47:17;5.63;;;2.60;;
75386;SDS011;63966;47.914;22.266;2023-07-29T12:50:21;5.70;;;2.50;;
75386;SDS011;63966;47.914;22.266;2023-07-29T12:53:24;6.50;;;3.05;;
75386;SDS011;63966;47.914;22.266;2023-07-29T12:56:28;7.70;;;2.95;;
75386;SDS011;63966;47.914;22.266;2023-07-29T12:59:33;5.90;;;2.65;;
75386;SDS011;63966;47.914;22.266;2023-07-29T13:02:36;6.10;;;3.22;;
75386;SDS011;63966;47.914;22.266;2023-07-29T13:05:40;5.60;;;3.07;;
75386;SDS011;63966;47.914;22.266;2023-07-29T13:08:44;5.00;;;2.97;;
75386;SDS011;63966;47.914;22.266;2023-07-29T13:11:47;5.85;;;3.00;;
75386;SDS011;63966;47.914;22.266;2023-07-29T13:14:50;5.00;;;2.80;;
75386;SDS011;63966;47.914;22.266;2023-07-29T13:17:54;5.95;;;2.97;;
75386;SDS011;63966;47.914;22.266;2023-07-29T13:20:59;5.03;;;3.03;;
75386;SDS011;63966;47.914;22.266;2023-07-29T13:24:02;5.70;;;3.47;;
75386;SDS011;63966;47.914;22.266;2023-07-29T13:27:06;5.25;;;3.20;;
75386;SDS011;63966;47.914;22.266;2023-07-29T13:30:09;5.97;;;2.92;;
75386;SDS011;63966;47.914;22.266;2023-07-29T13:33:13;5.20;;;2.78;;
75386;SDS011;63966;47.914;22.266;2023-07-29T13:36:16;6.40;;;3.07;;
75386;SDS011;63966;47.914;22.266;2023-07-29T13:39:19;7.45;;;3.20;;
75386;SDS011;63966;47.914;22.266;2023-07-29T13:42:23;6.50;;;3.10;;
75386;SDS011;63966;47.914;22.266;2023-07-29T13:45:26;4.65;;;2.60;;
75386;SDS011;63966;47.914;22.266;2023-07-29T13:48:30;6.43;;;2.97;;
75386;SDS011;63966;47.914;22.266;2023-07-29T13:51:35;7.67;;;3.10;;
75386;SDS011;63966;47.914;22.266;2023-07-29T13:54:39;8.02;;;2.80;;
75386;SDS011;63966;47.914;22.266;2023-07-29T13:57:42;6.68;;;3.20;;
75386;SDS011;63966;47.914;22.266;2023-07-29T14:00:46;7.07;;;3.10;;
75386;SDS011;63966;47.914;22.266;2023-07-29T14:03:49;5.22;;;3.00;;
75386;SDS011;63966;47.914;22.266;2023-07-29T14:06:53;8.30;;;4.07;;
75386;SDS011;63966;47.914;22.266;2023-07-29T14:10:00;6.35;;;3.45;;
75386;SDS011;63966;47.914;22.266;2023-07-29T14:13:04;8.75;;;4.13;;
75386;SDS011;63966;47.914;22.266;2023-07-29T14:16:07;5.57;;;3.13;;
75386;SDS011;63966;47.914;22.266;2023-07-29T14:19:11;9.88;;;3.17;;
75386;SDS011;63966;47.914;22.266;2023-07-29T14:22:14;7.70;;;3.20;;
75386;SDS011;63966;47.914;22.266;2023-07-29T14:25:18;5.82;;;3.20;;
75386;SDS011;63966;47.914;22.266;2023-07-29T14:28:21;5.20;;;2.97;;
75386;SDS011;63966;47.914;22.266;2023-07-29T14:31:25;4.88;;;2.65;;
75386;SDS011;63966;47.914;22.266;2023-07-29T14:34:28;7.43;;;3.30;;
75386;SDS011;63966;47.914;22.266;2023-07-29T14:37:32;5.43;;;2.53;;
75386;SDS011;63966;47.914;22.266;2023-07-29T14:40:36;5.80;;;2.70;;
75386;SDS011;63966;47.914;22.266;2023-07-29T14:43:39;5.45;;;2.85;;
75386;SDS011;63966;47.914;22.266;2023-07-29T14:46:43;5.47;;;2.83;;
75386;SDS011;63966;47.914;22.266;2023-07-29T14:49:46;5.20;;;2.90;;
75386;SDS011;63966;47.914;22.266;2023-07-29T14:52:49;5.17;;;2.80;;
75386;SDS011;63966;47.914;22.266;2023-07-29T14:55:53;4.90;;;2.70;;
75386;SDS011;63966;47.914;22.266;2023-07-29T14:58:57;5.07;;;2.78;;
75386;SDS011;63966;47.914;22.266;2023-07-29T15:02:00;5.70;;;2.92;;
75386;SDS011;63966;47.914;22.266;2023-07-29T15:05:04;5.25;;;2.47;;
75386;SDS011;63966;47.914;22.266;2023-07-29T15:08:07;5.40;;;2.60;;
75386;SDS011;63966;47.914;22.266;2023-07-29T15:11:11;6.38;;;2.90;;
75386;SDS011;63966;47.914;22.266;2023-07-29T15:14:14;7.35;;;3.08;;
75386;SDS011;63966;47.914;22.266;2023-07-29T15:17:18;11.82;;;2.63;;
75386;SDS011;63966;47.914;22.266;2023-07-29T15:20:22;15.67;;;3.50;;
75386;SDS011;63966;47.914;22.266;2023-07-29T15:23:25;16.33;;;3.50;;
75386;SDS011;63966;47.914;22.266;2023-07-29T15:26:28;9.38;;;3.45;;
75386;SDS011;63966;47.914;22.266;2023-07-29T15:29:32;7.43;;;2.95;;
75386;SDS011;63966;47.914;22.266;2023-07-29T15:32:35;6.20;;;2.90;;
75386;SDS011;63966;47.914;22.266;2023-07-29T15:35:39;6.73;;;2.60;;
75386;SDS011;63966;47.914;22.266;2023-07-29T15:38:42;6.23;;;2.63;;
75386;SDS011;63966;47.914;22.266;2023-07-29T15:41:45;7.10;;;2.80;;
75386;SDS011;63966;47.914;22.266;2023-07-29T15:44:49;6.70;;;2.40;;
75386;SDS011;63966;47.914;22.266;2023-07-29T15:47:53;8.68;;;2.80;;
75386;SDS011;63966;47.914;22.266;2023-07-29T15:50:57;6.33;;;2.80;;
75386;SDS011;63966;47.914;22.266;2023-07-29T15:54:00;7.67;;;3.10;;
75386;SDS011;63966;47.914;22.266;2023-07-29T15:57:04;8.07;;;2.92;;
75386;SDS011;63966;47.914;22.266;2023-07-29T16:00:08;6.57;;;3.22;;
75386;SDS011;63966;47.914;22.266;2023-07-29T16:03:16;6.80;;;3.50;;
75386;SDS011;63966;47.914;22.266;2023-07-29T16:06:19;6.80;;;3.67;;
75386;SDS011;63966;47.914;22.266;2023-07-29T16:09:23;7.50;;;3.27;;
75386;SDS011;63966;47.914;22.266;2023-07-29T16:12:26;5.75;;;3.22;;
75386;SDS011;63966;47.914;22.266;2023-07-29T16:15:30;6.65;;;3.22;;
75386;SDS011;63966;47.914;22.266;2023-07-29T16:18:34;6.97;;;3.40;;
75386;SDS011;63966;47.914;22.266;2023-07-29T16:21:37;6.70;;;3.50;;
75386;SDS011;63966;47.914;22.266;2023-07-29T16:24:40;6.37;;;3.33;;
75386;SDS011;63966;47.914;22.266;2023-07-29T16:27:44;6.35;;;3.25;;
75386;SDS011;63966;47.914;22.266;2023-07-29T16:30:47;6.30;;;3.13;;
75386;SDS011;63966;47.914;22.266;2023-07-29T16:33:51;6.75;;;3.65;;
75386;SDS011;63966;47.914;22.266;2023-07-29T16:36:54;5.82;;;3.75;;
75386;SDS011;63966;47.914;22.266;2023-07-29T16:39:58;6.37;;;3.27;;
75386;SDS011;63966;47.914;22.266;2023-07-29T16:43:01;5.80;;;3.50;;
75386;SDS011;63966;47.914;22.266;2023-07-29T16:46:04;6.95;;;3.50;;
75386;SDS011;63966;47.914;22.266;2023-07-29T16:49:08;7.68;;;4.00;;
75386;SDS011;63966;47.914;22.266;2023-07-29T16:52:22;8.27;;;3.57;;
75386;SDS011;63966;47.914;22.266;2023-07-29T16:55:25;6.20;;;3.63;;
75386;SDS011;63966;47.914;22.266;2023-07-29T16:58:29;6.75;;;3.47;;
75386;SDS011;63966;47.914;22.266;2023-07-29T17:01:32;6.10;;;3.70;;
75386;SDS011;63966;47.914;22.266;2023-07-29T17:04:36;7.43;;;3.67;;
75386;SDS011;63966;47.914;22.266;2023-07-29T17:07:39;7.83;;;3.50;;
75386;SDS011;63966;47.914;22.266;2023-07-29T17:10:42;6.47;;;3.47;;
75386;SDS011;63966;47.914;22.266;2023-07-29T17:13:46;5.22;;;3.17;;
75386;SDS011;63966;47.914;22.266;2023-07-29T17:16:49;6.25;;;3.53;;
75386;SDS011;63966;47.914;22.266;2023-07-29T17:19:56;6.75;;;3.67;;
75386;SDS011;63966;47.914;22.266;2023-07-29T17:22:59;6.37;;;3.70;;
75386;SDS011;63966;47.914;22.266;2023-07-29T17:26:02;6.13;;;3.57;;
75386;SDS011;63966;47.914;22.266;2023-07-29T17:29:06;7.28;;;3.67;;
75386;SDS011;63966;47.914;22.266;2023-07-29T17:32:10;6.15;;;4.03;;
75386;SDS011;63966;47.914;22.266;2023-07-29T17:35:13;7.18;;;3.75;;
75386;SDS011;63966;47.914;22.266;2023-07-29T17:38:16;6.67;;;3.93;;
75386;SDS011;63966;47.914;22.266;2023-07-29T17:41:20;7.33;;;3.63;;
75386;SDS011;63966;47.914;22.266;2023-07-29T17:44:23;6.80;;;3.90;;
75386;SDS011;63966;47.914;22.266;2023-07-29T17:47:27;7.75;;;4.28;;
75386;SDS011;63966;47.914;22.266;2023-07-29T17:50:30;8.80;;;4.50;;
75386;SDS011;63966;47.914;22.266;2023-07-29T17:53:35;6.67;;;3.93;;
75386;SDS011;63966;47.914;22.266;2023-07-29T17:56:38;8.33;;;3.97;;
75386;SDS011;63966;47.914;22.266;2023-07-29T17:59:41;7.47;;;4.10;;
75386;SDS011;63966;47.914;22.266;2023-07-29T18:02:45;10.23;;;4.32;;
75386;SDS011;63966;47.914;22.266;2023-07-29T18:05:51;7.15;;;4.00;;
75386;SDS011;63966;47.914;22.266;2023-07-29T18:08:54;6.53;;;3.93;;
75386;SDS011;63966;47.914;22.266;2023-07-29T18:11:58;6.27;;;3.67;;
75386;SDS011;63966;47.914;22.266;2023-07-29T18:15:03;7.60;;;3.88;;
75386;SDS011;63966;47.914;22.266;2023-07-29T18:18:07;7.60;;;3.78;;
75386;SDS011;63966;47.914;22.266;2023-07-29T18:21:11;8.45;;;4.10;;
75386;SDS011;63966;47.914;22.266;2023-07-29T18:24:14;9.37;;;4.73;;